Time;durP1;ratioP1;P1;durP2;ratioP2;P2;SDS_P1;SDS_P2;PMS_P1;PMS_P2;Temp;Humidity;BMP_temperature;BMP_pressure;BME280_temperature;BME280_humidity;BME280_pressure;Samples;Min_cycle;Max_cycle;Signal;HPM_P1;HPM_P2
2023/02/12 00:01:39;;;;;;;42.60;22.10;;;;;;;0.25;64.07;101947.69;107656;1253;97710;-63
2023/02/12 00:04:08;;;;;;;43.10;23.20;;;;;;;0.29;64.08;101943.90;107660;1254;111807;-62
2023/02/12 00:06:39;;;;;;;38.90;21.90;;;;;;;0.30;63.37;101944.73;107652;1254;109645;-62
2023/02/12 00:09:07;;;;;;;40.50;22.10;;;;;;;0.36;63.83;101940.70;107667;1254;107571;-63
2023/02/12 00:11:35;;;;;;;42.80;21.50;;;;;;;0.39;63.34;101946.45;107587;1253;97865;-61
2023/02/12 00:14:04;;;;;;;37.20;20.80;;;;;;;0.45;63.03;101947.34;107639;1253;97829;-62
2023/02/12 00:16:33;;;;;;;41.60;21.20;;;;;;;0.52;63.09;101958.27;107628;1254;111248;-62
2023/02/12 00:19:01;;;;;;;42.00;21.90;;;;;;;0.59;62.88;101958.98;107636;1254;110153;-61
2023/02/12 00:21:30;;;;;;;39.10;21.00;;;;;;;0.68;62.91;101956.23;107579;1253;107869;-62
2023/02/12 00:23:58;;;;;;;37.20;20.90;;;;;;;0.77;62.96;101946.29;107620;1254;97835;-61
2023/02/12 00:26:26;;;;;;;40.20;20.40;;;;;;;0.86;62.67;101939.67;107609;1254;97867;-63
2023/02/12 00:28:55;;;;;;;40.50;20.30;;;;;;;0.92;63.28;101944.95;107699;1253;111658;-62
2023/02/12 00:31:27;;;;;;;36.20;20.70;;;;;;;0.96;62.99;101946.60;107686;1253;110039;-62
2023/02/12 00:33:59;;;;;;;36.90;20.40;;;;;;;1.02;62.84;101943.42;107645;1251;108429;-62
2023/02/12 00:36:30;;;;;;;38.90;21.60;;;;;;;1.10;62.98;101936.31;107658;1254;97748;-63
2023/02/12 00:38:59;;;;;;;37.30;20.80;;;;;;;1.16;62.75;101936.67;107663;1254;97736;-62
2023/02/12 00:41:28;;;;;;;39.30;22.00;;;;;;;1.19;62.44;101936.05;107647;1254;111980;-62
2023/02/12 00:43:57;;;;;;;43.70;22.80;;;;;;;1.20;62.47;101931.95;107687;1253;109094;-62
2023/02/12 00:46:25;;;;;;;47.10;26.50;;;;;;;1.19;62.55;101935.33;107610;1253;107139;-62
2023/02/12 00:48:54;;;;;;;45.50;25.90;;;;;;;1.19;62.19;101940.46;107680;1253;97816;-61
2023/02/12 00:51:22;;;;;;;46.40;24.40;;;;;;;1.16;62.06;101940.70;107600;1254;97859;-61
2023/02/12 00:53:51;;;;;;;45.20;23.30;;;;;;;1.13;61.95;101934.98;107622;1254;112012;-61
2023/02/12 00:56:19;;;;;;;46.20;26.50;;;;;;;1.07;61.96;101934.09;107551;1252;109132;-63
2023/02/12 00:58:49;;;;;;;47.70;26.30;;;;;;;1.03;61.61;101935.81;107613;1253;108165;-62
2023/02/12 01:01:18;;;;;;;42.70;21.40;;;;;;;0.94;61.82;101940.13;107550;1252;98011;-63
2023/02/12 01:03:47;;;;;;;37.20;20.70;;;;;;;0.84;62.21;101938.84;107587;1254;98458;-62
2023/02/12 01:06:15;;;;;;;34.50;19.90;;;;;;;0.78;62.31;101929.46;107609;1254;111859;-63
2023/02/12 01:08:50;;;;;;;37.70;20.50;;;;;;;0.76;62.40;101920.89;107594;1254;110538;-63
2023/02/12 01:11:19;;;;;;;36.80;20.20;;;;;;;0.73;62.48;101921.83;107589;1251;108631;-63
2023/02/12 01:13:48;;;;;;;37.00;20.90;;;;;;;0.72;62.82;101923.48;107642;1253;97805;-63
2023/02/12 01:16:20;;;;;;;38.50;21.20;;;;;;;0.70;63.40;101923.70;107634;1253;97860;-61
2023/02/12 01:18:52;;;;;;;33.50;19.80;;;;;;;0.70;63.80;101920.89;107621;1254;112281;-63
2023/02/12 01:21:27;;;;;;;40.10;20.40;;;;;;;0.70;63.34;101923.52;107646;1254;110424;-61
2023/02/12 01:23:56;;;;;;;39.80;22.50;;;;;;;0.70;64.65;101920.52;107590;1253;109432;-63
2023/02/12 01:26:26;;;;;;;32.40;19.30;;;;;;;0.71;64.34;101928.28;107666;1253;97863;-63
2023/02/12 01:29:00;;;;;;;33.60;19.40;;;;;;;0.72;64.03;101922.23;107691;1254;99342;-62
2023/02/12 01:31:32;;;;;;;30.60;17.60;;;;;;;0.74;63.65;101929.59;107538;1254;111283;-62
2023/02/12 01:34:02;;;;;;;31.30;18.00;;;;;;;0.75;64.35;101927.46;107640;1252;110449;-62
2023/02/12 01:36:34;;;;;;;37.40;20.00;;;;;;;0.75;65.29;101923.37;107486;1254;108061;-63
2023/02/12 01:39:04;;;;;;;36.90;17.60;;;;;;;0.79;65.60;101921.86;107827;1253;97956;-63
2023/02/12 01:41:38;;;;;;;30.20;16.30;;;;;;;0.82;65.88;101921.41;107740;1254;97745;-62
2023/02/12 01:44:11;;;;;;;;;;;;;;;0.87;66.07;101928.52;107646;1254;111282;-62
2023/02/12 01:46:41;;;;;;;26.80;16.60;;;;;;;0.91;66.51;101923.09;107618;1254;110052;-62
2023/02/12 01:49:16;;;;;;;29.60;15.60;;;;;;;0.96;66.32;101927.71;107640;1253;107387;-63
2023/02/12 01:51:46;;;;;;;27.40;16.50;;;;;;;0.99;66.63;101922.69;107614;1254;97723;-62
2023/02/12 01:54:18;;;;;;;32.70;15.80;;;;;;;1.01;66.55;101922.09;107687;1253;97857;-62
2023/02/12 01:56:48;;;;;;;28.10;16.00;;;;;;;1.04;66.69;101918.12;107711;1253;110905;-62
2023/02/12 01:59:19;;;;;;;28.30;16.00;;;;;;;1.08;66.68;101921.36;107650;1253;110347;-62
2023/02/12 02:01:47;;;;;;;29.60;15.60;;;;;;;1.11;66.66;101922.16;107657;1255;108455;-62
2023/02/12 02:04:22;;;;;;;27.60;16.10;;;;;;;1.16;66.62;101924.13;107685;1254;97918;-62
2023/02/12 02:07:02;;;;;;;30.10;16.90;;;;;;;1.20;66.24;101924.89;107655;1254;97982;-61
2023/02/12 02:09:33;;;;;;;30.10;16.90;;;;;;;1.23;66.29;101924.98;107681;1254;113093;-61
2023/02/12 02:14:53;;;;;;;34.10;17.00;;;;;;;1.24;66.30;101935.20;107663;1253;108698;-62
2023/02/12 02:17:39;;;;;;;30.10;16.40;;;;;;;1.25;66.21;101937.46;107588;1253;97945;-63
2023/02/12 02:21:05;;;;;;;36.20;16.80;;;;;;;1.25;66.18;101938.67;107671;1253;98360;-63
2023/02/12 02:23:33;;;;;;;31.30;16.60;;;;;;;1.27;65.79;101947.98;107303;1257;111814;-62
2023/02/12 02:26:21;;;;;;;27.20;16.90;;;;;;;1.29;65.41;101949.54;107256;1257;109639;-62
2023/02/12 02:29:28;;;;;;;27.30;16.10;;;;;;;1.30;65.17;101948.27;107586;1253;108213;-62
2023/02/12 02:32:15;;;;;;;27.60;16.30;;;;;;;1.31;65.51;101955.13;107521;1252;97834;-63
2023/02/12 02:34:57;;;;;;;27.50;15.50;;;;;;;1.31;65.53;101959.36;107691;1253;98432;-63
2023/02/12 02:37:47;;;;;;;30.90;15.40;;;;;;;1.32;65.52;101961.45;107671;1253;112021;-64
2023/02/12 02:40:23;;;;;;;28.10;15.90;;;;;;;1.32;66.22;101965.15;107688;1254;110157;-63
2023/02/12 02:42:52;;;;;;;24.10;14.50;;;;;;;1.33;67.00;101963.55;107665;1254;107560;-62
2023/02/12 02:45:33;;;;;;;25.20;14.70;;;;;;;1.34;68.10;101969.53;107610;1253;97849;-64
2023/02/12 02:48:14;;;;;;;26.70;15.00;;;;;;;1.36;68.43;101972.49;107633;1252;97826;-63
2023/02/12 02:50:51;;;;;;;23.80;13.70;;;;;;;1.37;69.01;101972.64;107658;1254;111808;-63
2023/02/12 02:53:31;;;;;;;25.30;13.70;;;;;;;1.37;69.64;101973.84;107604;1254;109793;-62
2023/02/12 02:56:04;;;;;;;23.00;13.80;;;;;;;1.38;70.73;101977.19;107644;1254;109035;-61
2023/02/12 02:58:45;;;;;;;22.30;14.00;;;;;;;1.39;70.63;101977.83;107650;1252;97921;-61
2023/02/12 03:01:20;;;;;;;25.30;13.70;;;;;;;1.41;71.26;101984.16;107598;1254;97713;-61
2023/02/12 03:03:56;;;;;;;22.50;13.70;;;;;;;1.41;71.94;101982.04;107638;1252;112921;-62
2023/02/12 03:06:34;;;;;;;23.60;13.30;;;;;;;1.40;72.51;101983.48;107655;1253;110616;-62
2023/02/12 03:09:14;;;;;;;25.50;13.30;;;;;;;1.39;72.68;101983.85;107662;1254;108603;-62
2023/02/12 03:11:42;;;;;;;25.70;13.00;;;;;;;1.39;72.74;101981.57;107567;1254;97707;-63
2023/02/12 03:14:26;;;;;;;28.10;13.50;;;;;;;1.40;72.90;101983.64;107664;1254;97751;-63
2023/02/12 03:17:27;;;;;;;23.80;13.10;;;;;;;1.42;72.35;101981.85;107626;1254;111772;-63
2023/02/12 03:20:04;;;;;;;27.30;13.60;;;;;;;1.42;72.95;101983.25;107578;1253;110531;-62
2023/02/12 03:22:38;;;;;;;24.90;14.20;;;;;;;1.44;72.77;101987.43;107611;1253;106841;-62
2023/02/12 03:25:17;;;;;;;25.00;14.20;;;;;;;1.44;72.47;101989.39;107650;1253;97832;-62
2023/02/12 03:27:57;;;;;;;27.10;15.00;;;;;;;1.45;72.46;101989.00;107642;1253;97723;-61
2023/02/12 03:30:37;;;;;;;29.80;14.80;;;;;;;1.47;72.51;101990.71;107663;1254;111297;-62
2023/02/12 03:33:06;;;;;;;29.10;14.80;;;;;;;1.46;72.24;101988.42;107601;1253;108862;-61
2023/02/12 03:35:43;;;;;;;24.50;13.50;;;;;;;1.47;72.96;101988.92;107642;1255;107665;-62
2023/02/12 03:38:25;;;;;;;21.40;13.90;;;;;;;1.44;73.55;101987.97;107640;1252;97845;-61
2023/02/12 03:41:08;;;;;;;21.40;12.50;;;;;;;1.39;73.92;101985.98;107639;1254;97711;-61
2023/02/12 03:43:56;;;;;;;28.30;15.00;;;;;;;1.39;73.22;101986.01;107649;1254;112114;-62
2023/02/12 03:46:45;;;;;;;23.50;14.80;;;;;;;1.40;73.80;101985.41;107640;1254;110460;-62
2023/02/12 03:49:23;;;;;;;25.30;15.70;;;;;;;1.37;74.13;101983.92;107604;1254;108420;-62
2023/02/12 03:51:52;;;;;;;24.50;15.10;;;;;;;1.35;73.87;101986.63;107610;1253;97834;-62
2023/02/12 03:54:21;;;;;;;26.40;15.60;;;;;;;1.36;73.88;101986.44;107643;1253;97924;-63
2023/02/12 03:57:11;;;;;;;22.70;13.30;;;;;;;1.37;74.49;101989.05;107678;1255;111981;-61
2023/02/12 03:59:40;;;;;;;25.10;14.30;;;;;;;1.38;74.32;101994.33;107626;1253;108748;-61
2023/02/12 04:02:09;;;;;;;25.60;15.10;;;;;;;1.39;74.84;101992.90;107599;1254;108723;-62
2023/02/12 04:04:38;;;;;;;28.10;15.10;;;;;;;1.40;74.69;101994.09;107583;1254;97841;-62
2023/02/12 04:07:07;;;;;;;26.50;14.80;;;;;;;1.41;74.66;102000.06;107601;1254;98353;-62
2023/02/12 04:09:35;;;;;;;23.50;13.10;;;;;;;1.45;74.47;102006.30;107654;1254;112172;-62
2023/02/12 04:12:27;;;;;;;26.60;15.90;;;;;;;1.48;74.90;102006.73;107602;1254;109455;-61
2023/02/12 04:15:16;;;;;;;27.70;15.30;;;;;;;1.49;75.01;102009.36;107621;1253;108677;-63
2023/02/12 04:18:09;;;;;;;26.70;15.90;;;;;;;1.50;74.90;102009.51;107598;1255;97814;-62
2023/02/12 04:20:53;;;;;;;25.50;14.70;;;;;;;1.52;75.21;102011.76;107665;1254;98389;-62
2023/02/12 04:23:54;;;;;;;;;;;;;;;1.51;75.43;102017.98;107665;1254;111190;-63
2023/02/12 04:26:48;;;;;;;27.00;14.00;;;;;;;1.49;75.96;102022.09;107339;1254;109767;-60
2023/02/12 04:29:23;;;;;;;;;;;;;;;1.47;76.37;102026.23;107648;1253;111645;-62
2023/02/12 04:32:29;;;;;;;30.60;14.50;;;;;;;1.45;76.93;102024.54;107613;1254;97819;-62
2023/02/12 04:34:58;;;;;;;26.70;14.10;;;;;;;1.41;77.69;102033.12;107609;1254;98383;-62
2023/02/12 04:37:41;;;;;;;26.10;14.50;;;;;;;1.42;77.77;102032.41;107650;1254;111836;-63
2023/02/12 04:40:13;;;;;;;26.00;14.30;;;;;;;1.42;77.85;102038.05;107723;1254;110316;-63
2023/02/12 04:42:47;;;;;;;24.90;14.20;;;;;;;1.43;77.52;102038.91;107639;1254;108274;-61
2023/02/12 04:45:28;;;;;;;22.80;14.20;;;;;;;1.47;77.58;102044.79;107703;1256;97707;-62
2023/02/12 04:47:56;;;;;;;26.10;13.70;;;;;;;1.51;78.17;102042.20;107686;1254;98376;-61
2023/02/12 04:50:27;;;;;;;25.50;14.60;;;;;;;1.55;78.04;102045.97;107690;1254;111968;-61
2023/02/12 04:52:55;;;;;;;24.40;14.20;;;;;;;1.59;77.35;102047.08;107620;1255;109671;-64
2023/02/12 04:55:23;;;;;;;29.50;15.50;;;;;;;1.65;77.33;102048.86;107597;1256;107843;-62
2023/02/12 04:57:52;;;;;;;30.30;15.70;;;;;;;1.67;77.70;102051.44;107660;1254;97825;-63
2023/02/12 05:00:21;;;;;;;24.10;14.50;;;;;;;1.70;77.42;102058.43;107650;1254;98465;-61
2023/02/12 05:02:49;;;;;;;24.70;14.70;;;;;;;1.74;77.95;102060.80;107633;1256;112247;-61
2023/02/12 05:05:19;;;;;;;23.70;12.60;;;;;;;1.77;77.77;102058.55;107672;1254;110028;-62
2023/02/12 05:07:48;;;;;;;21.90;13.40;;;;;;;1.83;77.26;102064.55;107638;1255;108189;-61
2023/02/12 05:10:17;;;;;;;16.90;11.70;;;;;;;1.88;76.95;102067.59;107653;1254;99147;-62
2023/02/12 05:12:45;;;;;;;19.80;12.50;;;;;;;1.93;76.79;102073.81;107645;1254;97838;-63
2023/02/12 05:15:14;;;;;;;18.60;11.70;;;;;;;1.95;76.81;102077.84;107632;1254;111384;-64
2023/02/12 05:17:44;;;;;;;19.10;13.10;;;;;;;1.96;76.72;102080.62;107496;1254;111028;-62
2023/02/12 05:20:13;;;;;;;22.00;12.30;;;;;;;1.98;77.58;102086.05;107634;1254;109346;-61
2023/02/12 05:22:41;;;;;;;19.00;12.10;;;;;;;1.99;77.19;102087.08;107649;1254;97902;-62
2023/02/12 05:25:10;;;;;;;19.10;12.40;;;;;;;2.01;76.86;102091.96;107642;1254;98363;-61
2023/02/12 05:27:38;;;;;;;24.40;13.10;;;;;;;2.03;77.16;102097.04;107672;1254;111804;-63
2023/02/12 05:30:08;;;;;;;20.70;12.80;;;;;;;2.04;77.75;102101.79;107653;1255;110442;-62
2023/02/12 05:32:36;;;;;;;22.40;12.50;;;;;;;2.04;78.15;102103.56;107636;1255;107703;-63
2023/02/12 05:35:06;;;;;;;22.80;13.00;;;;;;;2.04;78.50;102107.10;107621;1255;97835;-61
2023/02/12 05:37:35;;;;;;;20.00;12.50;;;;;;;2.03;78.98;102111.02;107649;1254;98365;-62
2023/02/12 05:40:05;;;;;;;16.60;11.00;;;;;;;2.02;79.47;102123.24;107669;1253;112300;-62
2023/02/12 05:42:34;;;;;;;17.00;11.40;;;;;;;2.01;79.16;102126.30;107695;1256;109246;-64
2023/02/12 05:45:03;;;;;;;18.40;11.00;;;;;;;2.00;79.39;102127.73;107666;1254;108506;-62
2023/02/12 05:47:31;;;;;;;18.00;10.90;;;;;;;2.01;80.14;102133.56;107652;1254;97823;-61
2023/02/12 05:50:00;;;;;;;19.00;12.30;;;;;;;2.00;80.64;102141.56;107637;1256;98485;-62
2023/02/12 05:52:28;;;;;;;19.30;11.60;;;;;;;1.99;80.60;102146.88;107652;1254;110896;-61
2023/02/12 05:54:57;;;;;;;19.70;12.50;;;;;;;1.99;80.75;102151.50;107623;1256;109636;-62
2023/02/12 05:57:25;;;;;;;17.90;10.90;;;;;;;1.97;80.30;102151.70;107637;1256;107254;-63
2023/02/12 05:59:53;;;;;;;19.10;11.60;;;;;;;1.98;80.38;102155.22;107634;1254;97826;-61
2023/02/12 06:02:22;;;;;;;19.90;11.00;;;;;;;1.99;80.52;102161.38;107653;1255;97847;-62
2023/02/12 06:04:51;;;;;;;21.30;11.80;;;;;;;2.01;80.91;102164.71;107656;1255;111781;-66
2023/02/12 06:07:20;;;;;;;19.00;12.30;;;;;;;2.01;80.43;102169.63;107691;1254;108853;-62
2023/02/12 06:09:49;;;;;;;19.90;12.30;;;;;;;2.03;80.43;102172.24;107669;1254;108729;-63
2023/02/12 06:12:18;;;;;;;23.70;13.70;;;;;;;2.01;80.95;102177.95;107636;1251;97950;-61
2023/02/12 06:14:46;;;;;;;20.40;13.10;;;;;;;2.02;80.24;102185.89;107624;1256;97917;-60
2023/02/12 06:17:14;;;;;;;20.60;12.80;;;;;;;2.04;80.61;102184.78;107656;1256;111876;-62
2023/02/12 06:19:42;;;;;;;20.60;12.30;;;;;;;2.04;81.21;102184.61;107607;1251;110404;-61
2023/02/12 06:22:11;;;;;;;21.80;12.80;;;;;;;2.05;80.60;102190.07;107659;1254;108254;-61
2023/02/12 06:24:39;;;;;;;25.60;14.00;;;;;;;2.06;80.86;102193.23;107590;1256;97855;-61
2023/02/12 06:27:07;;;;;;;23.90;14.20;;;;;;;2.08;80.63;102198.11;107643;1254;98347;-61
2023/02/12 06:29:36;;;;;;;23.60;13.90;;;;;;;2.11;80.55;102203.52;107626;1255;112031;-65
2023/02/12 06:32:07;;;;;;;23.90;14.10;;;;;;;2.14;80.93;102214.23;107656;1254;109876;-61
2023/02/12 06:34:35;;;;;;;21.60;13.00;;;;;;;2.18;81.89;102216.73;107616;1256;107831;-64
2023/02/12 06:37:05;;;;;;;23.40;13.40;;;;;;;2.20;81.56;102223.42;107618;1256;97918;-62
2023/02/12 06:39:33;;;;;;;20.80;13.00;;;;;;;2.22;81.41;102225.13;107654;1254;97028;-62
2023/02/12 06:42:01;;;;;;;23.50;13.80;;;;;;;2.24;80.87;102227.02;107652;1255;110874;-61
2023/02/12 06:44:30;;;;;;;25.20;14.20;;;;;;;2.27;81.08;102233.84;107655;1251;110126;-61
2023/02/12 06:46:58;;;;;;;23.30;14.40;;;;;;;2.30;81.01;102236.41;107629;1254;108161;-62
2023/02/12 06:49:26;;;;;;;26.30;14.50;;;;;;;2.32;80.78;102241.63;107671;1255;97909;-62
2023/02/12 06:51:55;;;;;;;23.70;14.20;;;;;;;2.37;80.79;102241.68;107649;1255;97733;-63
2023/02/12 06:54:23;;;;;;;23.60;15.30;;;;;;;2.41;80.82;102250.95;107644;1254;111636;-61
2023/02/12 06:56:51;;;;;;;24.00;14.10;;;;;;;2.43;80.83;102253.89;107653;1255;109192;-62
2023/02/12 06:59:20;;;;;;;24.40;15.00;;;;;;;2.47;80.70;102255.17;107610;1251;111673;-62
2023/02/12 07:01:48;;;;;;;22.20;13.60;;;;;;;2.50;80.32;102262.88;107566;1255;97940;-62
2023/02/12 07:04:17;;;;;;;25.30;14.40;;;;;;;2.53;80.33;102264.58;107652;1255;97850;-61
2023/02/12 07:06:45;;;;;;;25.40;14.30;;;;;;;2.55;80.29;102269.10;107633;1255;113099;-60
2023/02/12 07:09:14;;;;;;;25.50;14.80;;;;;;;2.60;80.16;102270.02;107645;1254;109241;-62
2023/02/12 07:11:42;;;;;;;26.40;15.00;;;;;;;2.64;80.05;102275.55;107605;1256;107771;-62
2023/02/12 07:14:15;;;;;;;24.00;14.00;;;;;;;2.69;80.17;102278.08;107620;1255;97730;-62
2023/02/12 07:16:44;;;;;;;30.60;14.40;;;;;;;2.72;79.78;102284.88;107675;1253;97738;-61
2023/02/12 07:19:12;;;;;;;22.00;13.20;;;;;;;2.76;79.81;102283.36;107639;1254;112081;-63
2023/02/12 07:21:41;;;;;;;23.60;12.60;;;;;;;2.80;79.69;102291.55;107647;1256;109271;-62
2023/02/12 07:24:11;;;;;;;20.80;13.70;;;;;;;2.82;79.59;102293.61;107634;1255;107907;-61
2023/02/12 07:26:40;;;;;;;22.10;13.80;;;;;;;2.82;79.63;102299.61;107641;1254;97711;-62
2023/02/12 07:29:09;;;;;;;26.20;15.40;;;;;;;2.86;79.37;102301.81;107689;1254;98626;-63
2023/02/12 07:31:38;;;;;;;30.70;14.60;;;;;;;2.92;79.15;102303.91;107639;1254;112833;-62
2023/02/12 07:34:06;;;;;;;24.60;14.80;;;;;;;2.99;79.13;102310.44;107677;1254;110133;-62
2023/02/12 07:36:35;;;;;;;23.90;14.00;;;;;;;3.04;78.80;102315.77;107636;1254;108992;-62
2023/02/12 07:39:04;;;;;;;22.60;13.10;;;;;;;3.10;78.55;102316.84;107626;1254;97844;-62
2023/02/12 07:41:34;;;;;;;22.10;13.90;;;;;;;3.15;78.70;102319.33;107636;1254;97918;-62
2023/02/12 07:44:09;;;;;;;21.50;13.60;;;;;;;3.16;78.42;102320.56;107666;1254;112212;-61
2023/02/12 07:46:46;;;;;;;23.50;13.80;;;;;;;3.17;78.45;102320.86;107599;1255;109669;-63
2023/02/12 07:49:19;;;;;;;23.20;15.10;;;;;;;3.23;78.05;102327.06;107665;1254;108492;-62
2023/02/12 07:51:49;;;;;;;24.00;13.10;;;;;;;3.31;77.95;102326.60;107610;1253;97831;-63
2023/02/12 07:54:17;;;;;;;22.80;14.40;;;;;;;3.43;77.88;102326.92;107582;1254;97797;-62
2023/02/12 07:56:46;;;;;;;20.60;13.50;;;;;;;3.57;77.68;102328.05;107625;1254;111263;-61
2023/02/12 07:59:17;;;;;;;23.10;12.40;;;;;;;3.72;77.53;102332.50;107623;1257;110474;-62
2023/02/12 08:01:50;;;;;;;23.10;13.00;;;;;;;3.85;76.86;102332.05;107649;1254;108576;-61
2023/02/12 08:04:22;;;;;;;21.90;12.60;;;;;;;3.95;76.48;102336.86;107653;1254;97894;-62
2023/02/12 08:06:53;;;;;;;21.50;13.80;;;;;;;4.18;76.60;102337.81;107647;1254;97703;-61
2023/02/12 08:09:25;;;;;;;17.50;11.30;;;;;;;4.35;76.27;102341.25;107665;1254;112167;-62
2023/02/12 08:11:54;;;;;;;22.50;11.80;;;;;;;4.42;75.48;102346.52;107662;1254;110144;-62
2023/02/12 08:14:22;;;;;;;20.90;12.40;;;;;;;4.45;75.03;102348.73;107620;1253;108719;-62
2023/02/12 08:16:51;;;;;;;22.20;12.40;;;;;;;4.36;74.25;102348.88;107589;1254;97897;-62
2023/02/12 08:19:21;;;;;;;16.50;10.20;;;;;;;4.27;74.03;102355.23;107685;1254;98523;-66
2023/02/12 08:21:55;;;;;;;20.20;12.60;;;;;;;4.17;74.14;102356.47;107664;1256;111706;-61
2023/02/12 08:24:24;;;;;;;19.40;11.90;;;;;;;4.12;74.29;102360.23;107669;1254;109870;-63
2023/02/12 08:26:52;;;;;;;20.40;12.20;;;;;;;4.15;74.35;102361.39;107633;1252;107619;-62
2023/02/12 08:29:24;;;;;;;20.50;11.70;;;;;;;4.19;74.42;102368.15;107627;1251;97847;-62
2023/02/12 08:31:58;;;;;;;18.80;11.20;;;;;;;4.24;74.23;102370.96;107616;1256;97934;-62
2023/02/12 08:34:29;;;;;;;18.60;11.30;;;;;;;4.33;74.24;102376.70;107663;1251;111821;-62
2023/02/12 08:36:58;;;;;;;18.80;12.00;;;;;;;4.42;73.91;102381.69;107607;1251;110099;-62
2023/02/12 08:39:28;;;;;;;18.00;10.50;;;;;;;4.48;73.49;102386.42;107656;1251;107956;-61
2023/02/12 08:41:58;;;;;;;14.50;9.90;;;;;;;4.60;72.99;102392.95;107609;1254;97930;-62
2023/02/12 08:44:27;;;;;;;13.50;8.90;;;;;;;4.68;72.49;102396.35;107702;1255;97726;-62
2023/02/12 08:46:55;;;;;;;15.70;9.40;;;;;;;4.73;72.00;102395.46;107638;1254;110624;-61
2023/02/12 08:49:29;;;;;;;14.20;9.00;;;;;;;4.78;71.74;102393.88;107716;1257;109675;-62
2023/02/12 08:52:00;;;;;;;13.00;8.70;;;;;;;4.86;71.18;102388.74;107666;1254;108776;-61
2023/02/12 08:54:30;;;;;;;16.20;9.10;;;;;;;5.06;70.86;102395.08;107642;1254;97938;-61
2023/02/12 08:57:00;;;;;;;12.90;9.30;;;;;;;5.15;70.87;102400.83;107686;1251;97841;-63
2023/02/12 08:59:29;;;;;;;13.10;8.30;;;;;;;5.25;70.03;102408.41;107670;1251;111153;-62
2023/02/12 09:01:59;;;;;;;11.40;8.00;;;;;;;5.27;69.44;102411.86;107697;1255;109091;-61
2023/02/12 09:04:29;;;;;;;12.40;7.90;;;;;;;5.31;69.14;102419.72;107666;1253;107540;-62
2023/02/12 09:06:57;;;;;;;9.70;6.00;;;;;;;5.27;68.56;102430.40;107685;1254;99405;-63
2023/02/12 09:09:26;;;;;;;9.10;5.40;;;;;;;5.39;67.92;102432.77;107682;1254;98372;-63
2023/02/12 09:11:54;;;;;;;6.60;4.10;;;;;;;5.65;66.21;102435.06;107583;1256;111043;-61
2023/02/12 09:14:22;;;;;;;5.60;3.60;;;;;;;5.95;65.11;102430.11;107667;1254;110699;-63
2023/02/12 09:16:53;;;;;;;7.10;4.10;;;;;;;6.30;64.44;102430.79;107623;1254;108495;-66
2023/02/12 09:19:22;;;;;;;5.80;3.20;;;;;;;6.85;62.78;102435.64;107668;1254;97953;-62
2023/02/12 09:21:52;;;;;;;20.60;16.40;;;;;;;7.38;60.51;102441.91;107709;1256;97925;-64
2023/02/12 09:24:26;;;;;;;2.30;1.70;;;;;;;7.88;58.51;102447.67;107656;1254;112088;-61
2023/02/12 09:26:55;;;;;;;3.30;1.90;;;;;;;8.54;55.24;102440.16;107498;1251;108477;-62
2023/02/12 09:29:24;;;;;;;2.30;1.50;;;;;;;9.34;53.69;102443.00;107636;1252;108522;-62
2023/02/12 09:31:52;;;;;;;3.10;1.60;;;;;;;10.16;49.96;102446.85;107657;1253;97841;-63
2023/02/12 09:34:21;;;;;;;1.40;1.20;;;;;;;10.75;46.90;102454.60;107701;1251;97736;-62
2023/02/12 09:36:49;;;;;;;2.80;1.70;;;;;;;11.24;47.21;102450.96;107684;1252;111873;-64
2023/02/12 09:39:21;;;;;;;2.10;1.70;;;;;;;11.79;46.38;102449.33;107535;1254;109314;-61
2023/02/12 09:41:49;;;;;;;2.90;1.70;;;;;;;12.39;44.26;102456.14;107579;1252;109408;-62
2023/02/12 09:44:21;;;;;;;3.10;1.80;;;;;;;12.86;41.94;102464.01;107559;1254;97829;-62
2023/02/12 09:47:19;;;;;;;2.50;1.30;;;;;;;13.02;40.97;102463.02;107643;1254;97739;-63
2023/02/12 09:49:59;;;;;;;2.00;1.30;;;;;;;13.55;41.62;102461.41;107662;1254;111452;-62
2023/02/12 09:52:29;;;;;;;1.20;1.10;;;;;;;13.59;40.45;102456.44;107615;1256;110362;-63
2023/02/12 09:54:57;;;;;;;2.20;1.40;;;;;;;13.52;39.33;102460.18;107577;1254;108546;-61
2023/02/12 09:57:34;;;;;;;2.20;1.70;;;;;;;12.60;37.62;102470.13;107592;1254;97921;-61
2023/02/12 10:00:30;;;;;;;1.90;1.40;;;;;;;12.14;38.60;102481.20;107577;1253;97743;-62
2023/02/12 10:03:04;;;;;;;1.70;1.40;;;;;;;12.91;39.75;102482.54;107575;1254;112490;-61
2023/02/12 10:05:40;;;;;;;1.30;1.20;;;;;;;13.48;37.00;102492.34;107602;1254;109952;-63
2023/02/12 10:08:44;;;;;;;2.50;1.20;;;;;;;13.51;32.94;102489.09;107561;1254;108483;-62
2023/02/12 10:11:24;;;;;;;1.30;0.90;;;;;;;13.83;32.01;102493.40;107483;1254;97857;-63
2023/02/12 10:14:40;;;;;;;1.10;0.70;;;;;;;13.81;32.56;102486.84;107670;1254;98375;-62
2023/02/12 10:17:35;;;;;;;1.10;0.90;;;;;;;12.77;33.67;102491.48;107515;1252;111479;-63
2023/02/12 10:20:38;;;;;;;1.70;0.90;;;;;;;12.64;34.40;102497.92;107676;1254;109669;-61
2023/02/12 10:23:27;;;;;;;1.00;0.80;;;;;;;12.32;35.09;102500.85;107661;1254;107853;-63
2023/02/12 10:25:58;;;;;;;1.10;1.00;;;;;;;12.26;35.20;102512.24;107674;1251;97838;-64
2023/02/12 10:28:34;;;;;;;1.10;0.80;;;;;;;12.93;33.08;102511.98;107660;1251;97723;-62
2023/02/12 10:31:15;;;;;;;2.30;0.70;;;;;;;13.04;32.94;102515.88;107635;1251;111763;-62
2023/02/12 10:33:47;;;;;;;2.60;1.00;;;;;;;13.19;31.82;102515.35;107642;1254;109846;-63
2023/02/12 10:36:23;;;;;;;0.90;0.70;;;;;;;13.53;30.76;102516.70;107659;1256;108652;-61
2023/02/12 10:38:57;;;;;;;1.00;0.80;;;;;;;14.00;30.75;102520.41;107660;1251;97962;-61
2023/02/12 10:41:29;;;;;;;1.10;0.90;;;;;;;14.49;29.50;102519.94;107646;1251;97834;-62
2023/02/12 10:43:58;;;;;;;1.60;0.80;;;;;;;14.50;30.56;102532.20;107669;1251;111026;-62
2023/02/12 10:46:30;;;;;;;0.70;0.70;;;;;;;14.19;30.49;102533.11;106843;1251;1075273;-62
2023/02/12 10:48:59;;;;;;;1.40;0.70;;;;;;;14.55;30.43;102530.50;107654;1251;108277;-61
2023/02/12 10:51:47;;;;;;;1.30;0.60;;;;;;;15.10;30.74;102531.85;107614;1251;97932;-61
2023/02/12 10:54:42;;;;;;;1.10;0.70;;;;;;;15.74;28.32;102519.15;107691;1251;97723;-61
2023/02/12 10:57:30;;;;;;;1.00;0.90;;;;;;;15.82;28.29;102528.05;107659;1251;111682;-62
2023/02/12 11:00:23;;;;;;;1.80;0.80;;;;;;;16.18;27.30;102531.38;107674;1254;109316;-61
2023/02/12 11:03:03;;;;;;;2.20;1.00;;;;;;;16.33;28.00;102536.98;107529;1253;107562;-62
2023/02/12 11:05:35;;;;;;;2.90;0.90;;;;;;;16.72;28.58;102543.25;107639;1252;97825;-62
2023/02/12 11:08:05;;;;;;;1.30;0.80;;;;;;;17.06;27.62;102542.39;107629;1254;97676;-62
2023/02/12 11:10:40;;;;;;;0.60;0.50;;;;;;;16.71;26.56;102541.33;107655;1256;112504;-62
2023/02/12 11:13:26;;;;;;;0.80;0.70;;;;;;;15.56;25.55;102537.36;107704;1255;109867;-61
2023/02/12 11:15:55;;;;;;;2.20;1.00;;;;;;;15.52;26.42;102549.60;107660;1253;107655;-62
2023/02/12 11:18:27;;;;;;;3.60;0.70;;;;;;;15.78;26.83;102553.48;107674;1254;98469;-62
2023/02/12 11:20:57;;;;;;;0.60;0.60;;;;;;;16.23;27.04;102562.51;107665;1253;97925;-62
2023/02/12 11:23:36;;;;;;;1.20;0.70;;;;;;;16.69;27.01;102559.33;107643;1253;111353;-63
2023/02/12 11:26:06;;;;;;;1.20;0.90;;;;;;;16.93;27.03;102559.45;107677;1254;109825;-63
2023/02/12 11:28:35;;;;;;;1.00;0.80;;;;;;;16.54;27.08;102558.60;107657;1254;107670;-62
2023/02/12 11:31:22;;;;;;;1.20;0.90;;;;;;;15.73;27.59;102559.52;107690;1254;97915;-62
2023/02/12 11:34:16;;;;;;;1.40;1.00;;;;;;;14.95;27.47;102566.61;107627;1251;97740;-62
2023/02/12 11:36:49;;;;;;;0.70;0.70;;;;;;;13.10;29.06;102567.27;107690;1254;111953;-62
2023/02/12 11:39:23;;;;;;;4.10;1.30;;;;;;;12.12;30.65;102579.17;107620;1254;109254;-62